sensor_id;sensor_type;location;lat;lon;timestamp;P1;durP1;ratioP1;P2;durP2;ratioP2
18649;SDS011;9454;53.516;10.478;2022-07-19T00:01:24;4.38;;;2.78;;
18649;SDS011;9454;53.516;10.478;2022-07-19T00:04:27;4.95;;;2.95;;
18649;SDS011;9454;53.516;10.478;2022-07-19T00:07:32;6.80;;;2.75;;
18649;SDS011;9454;53.516;10.478;2022-07-19T00:10:35;4.18;;;2.67;;
18649;SDS011;9454;53.516;10.478;2022-07-19T00:13:37;5.18;;;3.28;;
18649;SDS011;9454;53.516;10.478;2022-07-19T00:16:42;4.30;;;2.50;;
18649;SDS011;9454;53.516;10.478;2022-07-19T00:19:45;4.63;;;2.70;;
18649;SDS011;9454;53.516;10.478;2022-07-19T00:22:49;6.03;;;2.70;;
18649;SDS011;9454;53.516;10.478;2022-07-19T00:25:52;5.07;;;2.85;;
18649;SDS011;9454;53.516;10.478;2022-07-19T00:28:54;7.63;;;2.63;;
18649;SDS011;9454;53.516;10.478;2022-07-19T00:31:58;3.85;;;2.30;;
18649;SDS011;9454;53.516;10.478;2022-07-19T00:35:00;5.50;;;2.95;;
18649;SDS011;9454;53.516;10.478;2022-07-19T00:38:05;3.92;;;2.53;;
18649;SDS011;9454;53.516;10.478;2022-07-19T00:41:08;4.57;;;2.83;;
18649;SDS011;9454;53.516;10.478;2022-07-19T00:44:11;4.45;;;2.55;;
18649;SDS011;9454;53.516;10.478;2022-07-19T00:47:13;10.50;;;2.90;;
18649;SDS011;9454;53.516;10.478;2022-07-19T00:50:17;5.03;;;2.70;;
18649;SDS011;9454;53.516;10.478;2022-07-19T00:53:21;4.60;;;2.80;;
18649;SDS011;9454;53.516;10.478;2022-07-19T00:56:24;4.43;;;2.40;;
18649;SDS011;9454;53.516;10.478;2022-07-19T00:59:27;3.95;;;2.33;;
18649;SDS011;9454;53.516;10.478;2022-07-19T01:02:29;5.82;;;2.90;;
18649;SDS011;9454;53.516;10.478;2022-07-19T01:05:34;4.13;;;2.78;;
18649;SDS011;9454;53.516;10.478;2022-07-19T01:08:39;6.72;;;2.83;;
18649;SDS011;9454;53.516;10.478;2022-07-19T01:11:43;5.82;;;2.95;;
18649;SDS011;9454;53.516;10.478;2022-07-19T01:14:46;6.15;;;2.75;;
18649;SDS011;9454;53.516;10.478;2022-07-19T01:17:49;4.43;;;2.50;;
18649;SDS011;9454;53.516;10.478;2022-07-19T01:20:51;5.35;;;2.47;;
18649;SDS011;9454;53.516;10.478;2022-07-19T01:23:56;4.03;;;2.45;;
18649;SDS011;9454;53.516;10.478;2022-07-19T01:26:59;5.05;;;2.88;;
18649;SDS011;9454;53.516;10.478;2022-07-19T01:30:01;5.75;;;2.55;;
18649;SDS011;9454;53.516;10.478;2022-07-19T01:33:04;9.23;;;2.95;;
18649;SDS011;9454;53.516;10.478;2022-07-19T01:36:07;8.02;;;2.80;;
18649;SDS011;9454;53.516;10.478;2022-07-19T01:39:11;4.57;;;2.63;;
18649;SDS011;9454;53.516;10.478;2022-07-19T01:42:14;4.60;;;2.47;;
18649;SDS011;9454;53.516;10.478;2022-07-19T01:45:16;4.30;;;2.33;;
18649;SDS011;9454;53.516;10.478;2022-07-19T01:48:19;3.97;;;2.28;;
18649;SDS011;9454;53.516;10.478;2022-07-19T01:51:22;2.80;;;2.22;;
18649;SDS011;9454;53.516;10.478;2022-07-19T01:54:27;4.80;;;2.35;;
18649;SDS011;9454;53.516;10.478;2022-07-19T01:57:29;5.30;;;2.92;;
18649;SDS011;9454;53.516;10.478;2022-07-19T02:00:32;4.88;;;2.83;;
18649;SDS011;9454;53.516;10.478;2022-07-19T02:03:35;4.95;;;2.53;;
18649;SDS011;9454;53.516;10.478;2022-07-19T02:06:37;6.82;;;2.97;;
18649;SDS011;9454;53.516;10.478;2022-07-19T02:09:41;5.57;;;2.53;;
18649;SDS011;9454;53.516;10.478;2022-07-19T02:12:44;4.28;;;2.60;;
18649;SDS011;9454;53.516;10.478;2022-07-19T02:15:47;8.48;;;3.03;;
18649;SDS011;9454;53.516;10.478;2022-07-19T02:18:50;4.68;;;3.03;;
18649;SDS011;9454;53.516;10.478;2022-07-19T02:21:52;4.20;;;2.90;;
18649;SDS011;9454;53.516;10.478;2022-07-19T02:24:56;4.47;;;2.58;;
18649;SDS011;9454;53.516;10.478;2022-07-19T02:27:59;6.38;;;3.22;;
18649;SDS011;9454;53.516;10.478;2022-07-19T02:31:02;4.85;;;2.67;;
18649;SDS011;9454;53.516;10.478;2022-07-19T02:34:04;5.40;;;2.97;;
18649;SDS011;9454;53.516;10.478;2022-07-19T02:37:08;6.18;;;2.90;;
18649;SDS011;9454;53.516;10.478;2022-07-19T02:40:12;5.57;;;2.85;;
18649;SDS011;9454;53.516;10.478;2022-07-19T02:43:14;4.55;;;2.80;;
18649;SDS011;9454;53.516;10.478;2022-07-19T02:46:17;5.97;;;2.75;;
18649;SDS011;9454;53.516;10.478;2022-07-19T02:49:20;6.05;;;2.65;;
18649;SDS011;9454;53.516;10.478;2022-07-19T02:52:24;3.42;;;2.75;;
18649;SDS011;9454;53.516;10.478;2022-07-19T02:55:28;5.32;;;2.58;;
18649;SDS011;9454;53.516;10.478;2022-07-19T02:58:30;4.68;;;2.67;;
18649;SDS011;9454;53.516;10.478;2022-07-19T03:01:33;5.55;;;2.78;;
18649;SDS011;9454;53.516;10.478;2022-07-19T03:04:36;4.82;;;2.88;;
18649;SDS011;9454;53.516;10.478;2022-07-19T03:07:39;5.15;;;2.75;;
18649;SDS011;9454;53.516;10.478;2022-07-19T03:10:43;4.43;;;2.70;;
18649;SDS011;9454;53.516;10.478;2022-07-19T03:13:46;4.93;;;2.55;;
18649;SDS011;9454;53.516;10.478;2022-07-19T03:16:49;3.55;;;2.45;;
18649;SDS011;9454;53.516;10.478;2022-07-19T03:19:52;4.88;;;2.97;;
18649;SDS011;9454;53.516;10.478;2022-07-19T03:22:55;10.65;;;2.67;;
18649;SDS011;9454;53.516;10.478;2022-07-19T03:25:59;5.18;;;2.45;;
18649;SDS011;9454;53.516;10.478;2022-07-19T03:29:02;8.48;;;2.47;;
18649;SDS011;9454;53.516;10.478;2022-07-19T03:32:04;9.05;;;2.20;;
18649;SDS011;9454;53.516;10.478;2022-07-19T03:35:07;7.90;;;2.70;;
18649;SDS011;9454;53.516;10.478;2022-07-19T03:38:10;4.90;;;2.53;;
18649;SDS011;9454;53.516;10.478;2022-07-19T03:41:14;5.18;;;3.38;;
18649;SDS011;9454;53.516;10.478;2022-07-19T03:44:17;9.77;;;3.33;;
18649;SDS011;9454;53.516;10.478;2022-07-19T03:47:20;5.63;;;3.35;;
18649;SDS011;9454;53.516;10.478;2022-07-19T03:50:23;5.38;;;3.22;;
18649;SDS011;9454;53.516;10.478;2022-07-19T03:53:25;5.70;;;2.90;;
18649;SDS011;9454;53.516;10.478;2022-07-19T03:56:29;8.50;;;3.55;;
18649;SDS011;9454;53.516;10.478;2022-07-19T03:59:32;6.32;;;3.00;;
18649;SDS011;9454;53.516;10.478;2022-07-19T04:02:35;5.22;;;2.72;;
18649;SDS011;9454;53.516;10.478;2022-07-19T04:05:38;4.57;;;2.70;;
18649;SDS011;9454;53.516;10.478;2022-07-19T04:08:41;6.85;;;3.20;;
18649;SDS011;9454;53.516;10.478;2022-07-19T04:11:45;4.85;;;2.75;;
18649;SDS011;9454;53.516;10.478;2022-07-19T04:14:48;8.35;;;3.03;;
18649;SDS011;9454;53.516;10.478;2022-07-19T04:17:50;11.32;;;2.83;;
18649;SDS011;9454;53.516;10.478;2022-07-19T04:20:53;5.40;;;2.67;;
18649;SDS011;9454;53.516;10.478;2022-07-19T04:23:56;12.13;;;2.60;;
18649;SDS011;9454;53.516;10.478;2022-07-19T04:27:00;5.75;;;2.83;;
18649;SDS011;9454;53.516;10.478;2022-07-19T04:30:03;3.83;;;2.40;;
18649;SDS011;9454;53.516;10.478;2022-07-19T04:33:06;4.90;;;2.55;;
18649;SDS011;9454;53.516;10.478;2022-07-19T04:36:08;9.55;;;2.97;;
18649;SDS011;9454;53.516;10.478;2022-07-19T04:39:11;6.95;;;2.45;;
18649;SDS011;9454;53.516;10.478;2022-07-19T04:42:15;10.38;;;2.95;;
18649;SDS011;9454;53.516;10.478;2022-07-19T04:45:17;6.57;;;3.22;;
18649;SDS011;9454;53.516;10.478;2022-07-19T04:48:20;7.25;;;3.38;;
18649;SDS011;9454;53.516;10.478;2022-07-19T04:51:23;6.25;;;2.67;;
18649;SDS011;9454;53.516;10.478;2022-07-19T04:54:25;7.25;;;2.92;;
18649;SDS011;9454;53.516;10.478;2022-07-19T04:57:29;10.75;;;3.10;;
18649;SDS011;9454;53.516;10.478;2022-07-19T05:00:32;15.23;;;2.67;;
18649;SDS011;9454;53.516;10.478;2022-07-19T05:03:35;6.47;;;3.25;;
18649;SDS011;9454;53.516;10.478;2022-07-19T05:06:37;6.20;;;2.85;;
18649;SDS011;9454;53.516;10.478;2022-07-19T05:09:40;5.97;;;2.92;;
18649;SDS011;9454;53.516;10.478;2022-07-19T05:12:44;10.95;;;3.40;;
18649;SDS011;9454;53.516;10.478;2022-07-19T05:15:47;5.20;;;2.90;;
18649;SDS011;9454;53.516;10.478;2022-07-19T05:18:50;14.68;;;3.63;;
18649;SDS011;9454;53.516;10.478;2022-07-19T05:21:53;10.43;;;3.45;;
18649;SDS011;9454;53.516;10.478;2022-07-19T05:24:55;8.27;;;3.45;;
18649;SDS011;9454;53.516;10.478;2022-07-19T05:27:59;11.32;;;3.70;;
18649;SDS011;9454;53.516;10.478;2022-07-19T05:31:03;7.50;;;2.88;;
18649;SDS011;9454;53.516;10.478;2022-07-19T05:34:06;7.35;;;3.47;;
18649;SDS011;9454;53.516;10.478;2022-07-19T05:37:08;12.98;;;3.15;;
18649;SDS011;9454;53.516;10.478;2022-07-19T05:40:11;15.43;;;3.63;;
18649;SDS011;9454;53.516;10.478;2022-07-19T05:43:15;11.80;;;3.92;;
18649;SDS011;9454;53.516;10.478;2022-07-19T05:46:18;8.40;;;3.47;;
18649;SDS011;9454;53.516;10.478;2022-07-19T05:49:21;6.07;;;3.38;;
18649;SDS011;9454;53.516;10.478;2022-07-19T05:52:24;5.38;;;3.00;;
18649;SDS011;9454;53.516;10.478;2022-07-19T05:55:28;5.75;;;3.42;;
18649;SDS011;9454;53.516;10.478;2022-07-19T05:58:32;8.13;;;3.38;;
18649;SDS011;9454;53.516;10.478;2022-07-19T06:01:35;8.43;;;4.03;;
18649;SDS011;9454;53.516;10.478;2022-07-19T06:04:38;11.35;;;3.65;;
18649;SDS011;9454;53.516;10.478;2022-07-19T06:07:41;6.22;;;3.30;;
18649;SDS011;9454;53.516;10.478;2022-07-19T06:10:44;10.65;;;3.28;;
18649;SDS011;9454;53.516;10.478;2022-07-19T06:13:49;15.07;;;3.60;;
18649;SDS011;9454;53.516;10.478;2022-07-19T06:16:51;8.43;;;3.00;;
18649;SDS011;9454;53.516;10.478;2022-07-19T06:19:55;13.45;;;3.40;;
18649;SDS011;9454;53.516;10.478;2022-07-19T06:22:58;9.05;;;3.22;;
18649;SDS011;9454;53.516;10.478;2022-07-19T06:26:01;9.27;;;3.60;;
18649;SDS011;9454;53.516;10.478;2022-07-19T06:29:05;11.65;;;3.92;;
18649;SDS011;9454;53.516;10.478;2022-07-19T06:32:08;12.85;;;3.33;;
18649;SDS011;9454;53.516;10.478;2022-07-19T06:35:10;15.02;;;3.35;;
18649;SDS011;9454;53.516;10.478;2022-07-19T06:38:13;7.07;;;3.47;;
18649;SDS011;9454;53.516;10.478;2022-07-19T06:41:16;5.85;;;3.25;;
18649;SDS011;9454;53.516;10.478;2022-07-19T06:44:20;8.23;;;3.15;;
18649;SDS011;9454;53.516;10.478;2022-07-19T06:47:22;6.05;;;3.42;;
18649;SDS011;9454;53.516;10.478;2022-07-19T06:50:25;10.73;;;3.42;;
18649;SDS011;9454;53.516;10.478;2022-07-19T06:53:42;6.40;;;3.60;;
18649;SDS011;9454;53.516;10.478;2022-07-19T06:56:45;5.93;;;3.13;;
18649;SDS011;9454;53.516;10.478;2022-07-19T06:59:49;5.13;;;2.85;;
18649;SDS011;9454;53.516;10.478;2022-07-19T07:02:52;9.32;;;3.20;;
18649;SDS011;9454;53.516;10.478;2022-07-19T07:05:55;8.38;;;3.03;;
18649;SDS011;9454;53.516;10.478;2022-07-19T07:08:57;5.30;;;2.92;;
18649;SDS011;9454;53.516;10.478;2022-07-19T07:12:01;5.50;;;2.70;;
18649;SDS011;9454;53.516;10.478;2022-07-19T07:15:07;7.03;;;3.38;;
18649;SDS011;9454;53.516;10.478;2022-07-19T07:18:10;12.10;;;3.38;;
18649;SDS011;9454;53.516;10.478;2022-07-19T07:21:17;6.35;;;2.60;;
18649;SDS011;9454;53.516;10.478;2022-07-19T07:24:19;5.28;;;2.83;;
18649;SDS011;9454;53.516;10.478;2022-07-19T07:27:23;6.13;;;3.08;;
18649;SDS011;9454;53.516;10.478;2022-07-19T07:30:27;5.07;;;3.17;;
18649;SDS011;9454;53.516;10.478;2022-07-19T07:33:29;6.43;;;3.15;;
18649;SDS011;9454;53.516;10.478;2022-07-19T07:36:32;4.45;;;3.20;;
18649;SDS011;9454;53.516;10.478;2022-07-19T07:39:34;5.50;;;3.20;;
18649;SDS011;9454;53.516;10.478;2022-07-19T07:42:37;5.03;;;2.92;;
18649;SDS011;9454;53.516;10.478;2022-07-19T07:45:42;5.63;;;3.28;;
18649;SDS011;9454;53.516;10.478;2022-07-19T07:48:45;5.20;;;2.92;;
18649;SDS011;9454;53.516;10.478;2022-07-19T07:51:48;6.93;;;3.13;;
18649;SDS011;9454;53.516;10.478;2022-07-19T07:54:51;5.38;;;3.20;;
18649;SDS011;9454;53.516;10.478;2022-07-19T07:58:14;7.70;;;3.20;;
18649;SDS011;9454;53.516;10.478;2022-07-19T08:01:18;7.03;;;2.95;;
18649;SDS011;9454;53.516;10.478;2022-07-19T08:04:21;6.45;;;3.47;;
18649;SDS011;9454;53.516;10.478;2022-07-19T08:07:23;4.43;;;2.97;;
18649;SDS011;9454;53.516;10.478;2022-07-19T08:10:28;3.83;;;2.60;;
18649;SDS011;9454;53.516;10.478;2022-07-19T08:13:32;5.18;;;3.25;;
18649;SDS011;9454;53.516;10.478;2022-07-19T08:16:36;10.40;;;3.22;;
18649;SDS011;9454;53.516;10.478;2022-07-19T08:19:39;4.72;;;3.30;;
18649;SDS011;9454;53.516;10.478;2022-07-19T08:22:42;5.10;;;2.67;;
18649;SDS011;9454;53.516;10.478;2022-07-19T08:25:45;6.43;;;3.03;;
18649;SDS011;9454;53.516;10.478;2022-07-19T08:28:48;4.30;;;2.40;;
18649;SDS011;9454;53.516;10.478;2022-07-19T08:31:52;8.18;;;2.83;;
18649;SDS011;9454;53.516;10.478;2022-07-19T08:34:54;4.60;;;2.90;;
18649;SDS011;9454;53.516;10.478;2022-07-19T08:37:57;7.18;;;2.83;;
18649;SDS011;9454;53.516;10.478;2022-07-19T08:41:00;6.18;;;3.05;;
18649;SDS011;9454;53.516;10.478;2022-07-19T08:44:04;4.15;;;2.80;;
18649;SDS011;9454;53.516;10.478;2022-07-19T08:47:09;8.75;;;3.00;;
18649;SDS011;9454;53.516;10.478;2022-07-19T08:50:12;3.92;;;2.30;;
18649;SDS011;9454;53.516;10.478;2022-07-19T08:53:15;5.13;;;2.78;;
18649;SDS011;9454;53.516;10.478;2022-07-19T08:56:18;5.10;;;2.53;;
18649;SDS011;9454;53.516;10.478;2022-07-19T08:59:39;4.60;;;2.63;;
18649;SDS011;9454;53.516;10.478;2022-07-19T09:02:51;4.45;;;2.35;;
18649;SDS011;9454;53.516;10.478;2022-07-19T09:06:02;3.47;;;2.25;;
18649;SDS011;9454;53.516;10.478;2022-07-19T09:09:05;3.40;;;2.30;;
18649;SDS011;9454;53.516;10.478;2022-07-19T09:12:07;5.68;;;3.13;;
18649;SDS011;9454;53.516;10.478;2022-07-19T09:15:10;6.10;;;2.72;;
18649;SDS011;9454;53.516;10.478;2022-07-19T09:18:16;3.30;;;2.63;;
18649;SDS011;9454;53.516;10.478;2022-07-19T09:21:18;4.97;;;2.50;;
18649;SDS011;9454;53.516;10.478;2022-07-19T09:24:21;3.83;;;2.30;;
18649;SDS011;9454;53.516;10.478;2022-07-19T09:27:24;6.07;;;2.40;;
18649;SDS011;9454;53.516;10.478;2022-07-19T09:30:34;7.05;;;2.80;;
18649;SDS011;9454;53.516;10.478;2022-07-19T09:33:48;5.47;;;3.38;;
18649;SDS011;9454;53.516;10.478;2022-07-19T09:40:30;8.85;;;2.78;;
18649;SDS011;9454;53.516;10.478;2022-07-19T09:43:41;3.00;;;2.25;;
18649;SDS011;9454;53.516;10.478;2022-07-19T09:46:57;3.70;;;2.50;;
18649;SDS011;9454;53.516;10.478;2022-07-19T09:50:03;5.65;;;2.35;;
18649;SDS011;9454;53.516;10.478;2022-07-19T09:53:06;5.28;;;2.50;;
18649;SDS011;9454;53.516;10.478;2022-07-19T09:56:09;6.72;;;2.67;;
18649;SDS011;9454;53.516;10.478;2022-07-19T09:59:12;4.50;;;2.25;;
18649;SDS011;9454;53.516;10.478;2022-07-19T10:02:15;4.85;;;2.17;;
18649;SDS011;9454;53.516;10.478;2022-07-19T10:05:22;3.13;;;2.25;;
18649;SDS011;9454;53.516;10.478;2022-07-19T10:08:25;6.63;;;2.33;;
18649;SDS011;9454;53.516;10.478;2022-07-19T10:11:28;3.45;;;2.10;;
18649;SDS011;9454;53.516;10.478;2022-07-19T10:14:31;5.00;;;2.42;;
18649;SDS011;9454;53.516;10.478;2022-07-19T10:17:35;3.58;;;2.20;;
18649;SDS011;9454;53.516;10.478;2022-07-19T10:20:42;5.03;;;2.00;;
18649;SDS011;9454;53.516;10.478;2022-07-19T10:23:49;5.75;;;1.85;;
18649;SDS011;9454;53.516;10.478;2022-07-19T10:26:53;3.10;;;2.20;;
18649;SDS011;9454;53.516;10.478;2022-07-19T10:30:14;2.67;;;1.92;;
18649;SDS011;9454;53.516;10.478;2022-07-19T10:33:27;3.88;;;1.92;;
18649;SDS011;9454;53.516;10.478;2022-07-19T10:36:31;9.80;;;2.40;;
18649;SDS011;9454;53.516;10.478;2022-07-19T10:39:35;5.18;;;1.88;;
18649;SDS011;9454;53.516;10.478;2022-07-19T10:46:08;4.90;;;2.13;;
18649;SDS011;9454;53.516;10.478;2022-07-19T10:49:11;4.20;;;2.00;;
18649;SDS011;9454;53.516;10.478;2022-07-19T10:52:33;2.60;;;1.70;;
18649;SDS011;9454;53.516;10.478;2022-07-19T10:55:36;2.70;;;1.90;;
18649;SDS011;9454;53.516;10.478;2022-07-19T10:58:46;3.75;;;2.10;;
18649;SDS011;9454;53.516;10.478;2022-07-19T11:01:53;8.50;;;2.00;;
18649;SDS011;9454;53.516;10.478;2022-07-19T11:04:57;2.63;;;1.65;;
18649;SDS011;9454;53.516;10.478;2022-07-19T11:08:01;2.03;;;1.65;;
18649;SDS011;9454;53.516;10.478;2022-07-19T11:11:04;3.03;;;1.80;;
18649;SDS011;9454;53.516;10.478;2022-07-19T11:14:07;2.60;;;1.75;;
18649;SDS011;9454;53.516;10.478;2022-07-19T11:17:10;2.40;;;1.48;;
18649;SDS011;9454;53.516;10.478;2022-07-19T11:20:13;2.10;;;1.50;;
18649;SDS011;9454;53.516;10.478;2022-07-19T11:23:19;2.90;;;1.73;;
18649;SDS011;9454;53.516;10.478;2022-07-19T11:26:22;3.67;;;2.00;;
18649;SDS011;9454;53.516;10.478;2022-07-19T11:29:25;3.25;;;1.77;;
18649;SDS011;9454;53.516;10.478;2022-07-19T11:32:29;3.78;;;1.83;;
18649;SDS011;9454;53.516;10.478;2022-07-19T11:35:32;2.30;;;1.67;;
18649;SDS011;9454;53.516;10.478;2022-07-19T11:38:40;4.03;;;1.60;;
18649;SDS011;9454;53.516;10.478;2022-07-19T11:41:44;5.43;;;1.50;;
18649;SDS011;9454;53.516;10.478;2022-07-19T11:44:47;1.55;;;1.20;;
18649;SDS011;9454;53.516;10.478;2022-07-19T11:47:50;3.15;;;1.50;;
18649;SDS011;9454;53.516;10.478;2022-07-19T11:50:59;4.25;;;1.58;;
18649;SDS011;9454;53.516;10.478;2022-07-19T11:54:05;1.58;;;1.05;;
18649;SDS011;9454;53.516;10.478;2022-07-19T11:57:21;3.00;;;1.45;;
18649;SDS011;9454;53.516;10.478;2022-07-19T12:00:24;1.92;;;1.15;;
18649;SDS011;9454;53.516;10.478;2022-07-19T12:03:27;2.95;;;1.60;;
18649;SDS011;9454;53.516;10.478;2022-07-19T12:06:36;4.60;;;1.75;;
18649;SDS011;9454;53.516;10.478;2022-07-19T12:09:41;2.92;;;1.40;;
18649;SDS011;9454;53.516;10.478;2022-07-19T12:12:43;1.52;;;1.13;;
18649;SDS011;9454;53.516;10.478;2022-07-19T12:15:48;2.25;;;1.23;;
18649;SDS011;9454;53.516;10.478;2022-07-19T12:18:51;1.73;;;1.30;;
18649;SDS011;9454;53.516;10.478;2022-07-19T12:21:54;4.13;;;1.35;;
18649;SDS011;9454;53.516;10.478;2022-07-19T12:24:59;4.72;;;1.52;;
18649;SDS011;9454;53.516;10.478;2022-07-19T12:28:03;2.08;;;1.10;;
18649;SDS011;9454;53.516;10.478;2022-07-19T12:31:06;1.88;;;1.10;;
18649;SDS011;9454;53.516;10.478;2022-07-19T12:34:09;1.30;;;1.20;;
18649;SDS011;9454;53.516;10.478;2022-07-19T12:37:17;2.45;;;1.58;;
18649;SDS011;9454;53.516;10.478;2022-07-19T12:40:22;4.68;;;1.23;;
18649;SDS011;9454;53.516;10.478;2022-07-19T12:43:25;2.45;;;1.38;;
18649;SDS011;9454;53.516;10.478;2022-07-19T12:46:28;1.35;;;1.20;;
18649;SDS011;9454;53.516;10.478;2022-07-19T12:49:40;1.85;;;1.15;;
18649;SDS011;9454;53.516;10.478;2022-07-19T12:52:43;2.65;;;1.40;;
18649;SDS011;9454;53.516;10.478;2022-07-19T12:55:47;1.60;;;1.25;;
18649;SDS011;9454;53.516;10.478;2022-07-19T12:58:50;5.22;;;1.30;;
18649;SDS011;9454;53.516;10.478;2022-07-19T13:02:12;1.40;;;1.13;;
18649;SDS011;9454;53.516;10.478;2022-07-19T13:05:15;2.20;;;1.38;;
18649;SDS011;9454;53.516;10.478;2022-07-19T13:08:18;4.85;;;1.23;;
18649;SDS011;9454;53.516;10.478;2022-07-19T13:11:23;2.92;;;1.35;;
18649;SDS011;9454;53.516;10.478;2022-07-19T13:14:28;2.08;;;1.20;;
18649;SDS011;9454;53.516;10.478;2022-07-19T13:17:31;2.30;;;1.35;;
18649;SDS011;9454;53.516;10.478;2022-07-19T13:20:34;2.33;;;1.30;;
18649;SDS011;9454;53.516;10.478;2022-07-19T13:23:36;1.52;;;1.42;;
18649;SDS011;9454;53.516;10.478;2022-07-19T13:26:40;2.58;;;0.95;;
18649;SDS011;9454;53.516;10.478;2022-07-19T13:29:43;2.00;;;1.20;;
18649;SDS011;9454;53.516;10.478;2022-07-19T13:32:46;4.72;;;1.00;;
18649;SDS011;9454;53.516;10.478;2022-07-19T13:35:49;1.75;;;1.10;;
18649;SDS011;9454;53.516;10.478;2022-07-19T13:38:59;1.73;;;1.10;;
18649;SDS011;9454;53.516;10.478;2022-07-19T13:42:04;2.63;;;1.20;;
18649;SDS011;9454;53.516;10.478;2022-07-19T13:45:07;2.20;;;1.20;;
18649;SDS011;9454;53.516;10.478;2022-07-19T13:48:10;4.03;;;1.30;;
18649;SDS011;9454;53.516;10.478;2022-07-19T13:51:13;2.47;;;1.35;;
18649;SDS011;9454;53.516;10.478;2022-07-19T13:54:16;1.48;;;1.38;;
18649;SDS011;9454;53.516;10.478;2022-07-19T13:57:20;1.58;;;1.17;;
18649;SDS011;9454;53.516;10.478;2022-07-19T14:00:23;2.70;;;1.20;;
18649;SDS011;9454;53.516;10.478;2022-07-19T14:03:25;1.73;;;1.13;;
18649;SDS011;9454;53.516;10.478;2022-07-19T14:06:28;1.55;;;1.38;;
18649;SDS011;9454;53.516;10.478;2022-07-19T14:09:31;1.48;;;1.13;;
18649;SDS011;9454;53.516;10.478;2022-07-19T14:12:36;1.33;;;1.13;;
18649;SDS011;9454;53.516;10.478;2022-07-19T14:15:39;4.15;;;1.88;;
18649;SDS011;9454;53.516;10.478;2022-07-19T14:18:43;1.55;;;1.00;;
18649;SDS011;9454;53.516;10.478;2022-07-19T14:21:46;4.63;;;1.20;;
18649;SDS011;9454;53.516;10.478;2022-07-19T14:24:50;3.03;;;1.30;;
18649;SDS011;9454;53.516;10.478;2022-07-19T14:27:54;2.20;;;1.08;;
18649;SDS011;9454;53.516;10.478;2022-07-19T14:30:57;1.27;;;0.80;;
18649;SDS011;9454;53.516;10.478;2022-07-19T14:34:00;5.07;;;0.90;;
18649;SDS011;9454;53.516;10.478;2022-07-19T14:37:22;6.03;;;1.02;;
18649;SDS011;9454;53.516;10.478;2022-07-19T14:40:30;5.75;;;1.13;;
18649;SDS011;9454;53.516;10.478;2022-07-19T14:43:34;1.45;;;1.00;;
18649;SDS011;9454;53.516;10.478;2022-07-19T14:46:37;4.38;;;1.00;;
18649;SDS011;9454;53.516;10.478;2022-07-19T14:49:40;0.85;;;0.80;;
18649;SDS011;9454;53.516;10.478;2022-07-19T14:52:42;1.48;;;1.00;;
18649;SDS011;9454;53.516;10.478;2022-07-19T14:55:45;4.43;;;0.88;;
18649;SDS011;9454;53.516;10.478;2022-07-19T14:58:49;3.33;;;1.30;;
18649;SDS011;9454;53.516;10.478;2022-07-19T15:01:52;2.30;;;0.90;;
18649;SDS011;9454;53.516;10.478;2022-07-19T15:04:55;3.20;;;1.10;;
18649;SDS011;9454;53.516;10.478;2022-07-19T15:07:59;10.85;;;1.23;;
18649;SDS011;9454;53.516;10.478;2022-07-19T15:11:02;1.35;;;0.95;;
18649;SDS011;9454;53.516;10.478;2022-07-19T15:14:06;1.85;;;0.90;;
18649;SDS011;9454;53.516;10.478;2022-07-19T15:17:09;1.92;;;1.08;;
18649;SDS011;9454;53.516;10.478;2022-07-19T15:20:12;4.35;;;1.33;;
18649;SDS011;9454;53.516;10.478;2022-07-19T15:23:15;2.35;;;1.15;;
18649;SDS011;9454;53.516;10.478;2022-07-19T15:26:17;5.00;;;1.35;;
18649;SDS011;9454;53.516;10.478;2022-07-19T15:29:22;2.05;;;1.08;;
18649;SDS011;9454;53.516;10.478;2022-07-19T15:32:25;2.53;;;1.02;;
18649;SDS011;9454;53.516;10.478;2022-07-19T15:35:28;1.23;;;0.82;;
18649;SDS011;9454;53.516;10.478;2022-07-19T15:38:30;2.00;;;1.40;;
18649;SDS011;9454;53.516;10.478;2022-07-19T15:41:33;1.60;;;1.05;;
18649;SDS011;9454;53.516;10.478;2022-07-19T15:44:37;2.78;;;1.40;;
18649;SDS011;9454;53.516;10.478;2022-07-19T15:47:40;3.00;;;1.40;;
18649;SDS011;9454;53.516;10.478;2022-07-19T15:50:44;1.50;;;1.10;;
18649;SDS011;9454;53.516;10.478;2022-07-19T15:53:47;3.40;;;1.30;;
18649;SDS011;9454;53.516;10.478;2022-07-19T15:56:50;2.95;;;1.40;;
18649;SDS011;9454;53.516;10.478;2022-07-19T15:59:54;2.92;;;1.35;;
18649;SDS011;9454;53.516;10.478;2022-07-19T16:02:57;4.15;;;1.40;;
18649;SDS011;9454;53.516;10.478;2022-07-19T16:05:59;2.83;;;1.27;;
18649;SDS011;9454;53.516;10.478;2022-07-19T16:09:02;2.13;;;1.48;;
18649;SDS011;9454;53.516;10.478;2022-07-19T16:12:05;8.80;;;1.60;;
18649;SDS011;9454;53.516;10.478;2022-07-19T16:15:09;2.00;;;1.02;;
18649;SDS011;9454;53.516;10.478;2022-07-19T16:18:13;2.33;;;1.45;;
18649;SDS011;9454;53.516;10.478;2022-07-19T16:21:16;3.88;;;1.30;;
18649;SDS011;9454;53.516;10.478;2022-07-19T16:24:18;2.80;;;1.30;;
18649;SDS011;9454;53.516;10.478;2022-07-19T16:27:21;4.68;;;1.80;;
18649;SDS011;9454;53.516;10.478;2022-07-19T16:30:25;3.03;;;1.35;;
18649;SDS011;9454;53.516;10.478;2022-07-19T16:33:28;1.70;;;1.58;;
18649;SDS011;9454;53.516;10.478;2022-07-19T16:36:31;2.35;;;1.38;;
18649;SDS011;9454;53.516;10.478;2022-07-19T16:39:34;2.15;;;1.55;;
18649;SDS011;9454;53.516;10.478;2022-07-19T16:42:39;3.20;;;1.38;;
18649;SDS011;9454;53.516;10.478;2022-07-19T16:46:04;5.20;;;3.20;;
18649;SDS011;9454;53.516;10.478;2022-07-19T16:49:09;2.33;;;1.55;;
18649;SDS011;9454;53.516;10.478;2022-07-19T16:52:12;5.30;;;1.52;;
18649;SDS011;9454;53.516;10.478;2022-07-19T16:55:15;2.58;;;1.75;;
18649;SDS011;9454;53.516;10.478;2022-07-19T16:58:18;3.15;;;1.58;;
18649;SDS011;9454;53.516;10.478;2022-07-19T17:01:22;5.10;;;1.40;;
18649;SDS011;9454;53.516;10.478;2022-07-19T17:04:25;2.05;;;1.45;;
18649;SDS011;9454;53.516;10.478;2022-07-19T17:07:29;3.78;;;1.42;;
18649;SDS011;9454;53.516;10.478;2022-07-19T17:10:31;2.20;;;1.65;;
18649;SDS011;9454;53.516;10.478;2022-07-19T17:13:36;2.80;;;1.60;;
18649;SDS011;9454;53.516;10.478;2022-07-19T17:16:41;2.83;;;1.75;;
18649;SDS011;9454;53.516;10.478;2022-07-19T17:19:45;5.15;;;1.70;;
18649;SDS011;9454;53.516;10.478;2022-07-19T17:22:47;2.92;;;1.55;;
18649;SDS011;9454;53.516;10.478;2022-07-19T17:25:50;2.45;;;1.55;;
18649;SDS011;9454;53.516;10.478;2022-07-19T17:28:53;1.75;;;1.25;;
18649;SDS011;9454;53.516;10.478;2022-07-19T17:31:57;3.55;;;1.60;;
18649;SDS011;9454;53.516;10.478;2022-07-19T17:35:00;2.30;;;1.63;;
18649;SDS011;9454;53.516;10.478;2022-07-19T17:38:03;3.35;;;1.77;;
18649;SDS011;9454;53.516;10.478;2022-07-19T17:41:06;1.90;;;1.35;;
18649;SDS011;9454;53.516;10.478;2022-07-19T17:44:09;3.17;;;1.58;;
18649;SDS011;9454;53.516;10.478;2022-07-19T17:47:13;2.97;;;1.80;;
18649;SDS011;9454;53.516;10.478;2022-07-19T17:50:16;2.38;;;1.35;;
18649;SDS011;9454;53.516;10.478;2022-07-19T17:53:19;3.85;;;1.60;;
18649;SDS011;9454;53.516;10.478;2022-07-19T17:56:22;6.20;;;1.83;;
18649;SDS011;9454;53.516;10.478;2022-07-19T17:59:25;2.85;;;1.65;;
18649;SDS011;9454;53.516;10.478;2022-07-19T18:02:28;2.20;;;1.58;;
18649;SDS011;9454;53.516;10.478;2022-07-19T18:05:52;5.15;;;1.92;;
18649;SDS011;9454;53.516;10.478;2022-07-19T18:08:54;9.93;;;2.22;;
18649;SDS011;9454;53.516;10.478;2022-07-19T18:11:57;12.02;;;2.47;;
18649;SDS011;9454;53.516;10.478;2022-07-19T18:15:00;6.65;;;1.85;;
18649;SDS011;9454;53.516;10.478;2022-07-19T18:18:05;1.70;;;1.30;;
18649;SDS011;9454;53.516;10.478;2022-07-19T18:21:07;4.03;;;2.00;;
18649;SDS011;9454;53.516;10.478;2022-07-19T18:24:10;2.60;;;1.63;;
18649;SDS011;9454;53.516;10.478;2022-07-19T18:27:13;3.38;;;1.73;;
18649;SDS011;9454;53.516;10.478;2022-07-19T18:30:15;3.15;;;2.08;;
18649;SDS011;9454;53.516;10.478;2022-07-19T18:33:19;4.10;;;2.20;;